Time;durP1;ratioP1;P1;durP2;ratioP2;P2;SDS_P1;SDS_P2;PMS_P1;PMS_P2;Temp;Humidity;BMP_temperature;BMP_pressure;BME280_temperature;BME280_humidity;BME280_pressure;Samples;Min_cycle;Max_cycle;Signal;HPM_P1;HPM_P2
2022/09/13 00:00:57;;;;;;;3.37;3.17;;;;;;;17.20;72.79;94490.44;4990323;28;20288;-83
2022/09/13 00:03:24;;;;;;;3.20;3.00;;;;;;;17.20;73.10;94490.44;4989933;28;20307;-81
2022/09/13 00:05:52;;;;;;;5.17;4.20;;;;;;;17.07;72.95;94465.28;4990535;28;20193;-82
2022/09/13 00:08:20;;;;;;;4.53;3.40;;;;;;;16.88;72.88;94438.25;4994274;28;20192;-83
2022/09/13 00:10:47;;;;;;;3.53;3.23;;;;;;;17.30;73.01;94486.56;4994416;28;20221;-80
2022/09/13 00:13:15;;;;;;;4.47;3.13;;;;;;;17.14;72.62;94450.66;4997405;28;20215;-82
2022/09/13 00:15:43;;;;;;;5.40;3.30;;;;;;;17.35;72.93;94480.03;4995533;28;20224;-84
2022/09/13 00:18:10;;;;;;;3.63;3.33;;;;;;;17.34;73.14;94476.66;4993580;28;20239;-82
2022/09/13 00:20:38;;;;;;;3.57;3.07;;;;;;;17.36;73.28;94476.47;4994070;28;20224;-84
2022/09/13 00:23:04;;;;;;;3.40;3.10;;;;;;;17.15;73.07;94441.09;4993975;28;20205;-82
2022/09/13 00:25:33;;;;;;;6.00;3.87;;;;;;;17.16;72.89;94434.94;4994102;28;20196;-80
2022/09/13 00:28:00;;;;;;;4.30;3.90;;;;;;;17.36;72.76;94450.63;4993813;28;20181;-82
2022/09/13 00:30:26;;;;;;;4.97;3.70;;;;;;;16.96;72.85;94396.00;4993984;28;20197;-83
2022/09/13 00:32:54;;;;;;;3.63;3.33;;;;;;;17.53;72.97;94470.91;4993448;28;20538;-83
2022/09/13 00:35:20;;;;;;;3.70;3.40;;;;;;;17.53;72.72;94467.50;4993889;28;20504;-83
2022/09/13 00:37:47;;;;;;;7.20;3.83;;;;;;;17.49;72.92;94469.66;4993759;28;20200;-82
2022/09/13 00:40:14;;;;;;;4.33;2.90;;;;;;;17.48;73.25;94456.91;4993846;28;20193;-83
2022/09/13 00:42:42;;;;;;;3.90;3.40;;;;;;;17.50;73.02;94458.31;4993998;28;20194;-82
2022/09/13 00:45:16;;;;;;;3.93;3.53;;;;;;;17.54;73.00;94453.59;4993084;28;20212;-82
2022/09/13 00:47:48;;;;;;;3.93;3.60;;;;;;;17.60;72.67;94458.00;4993231;28;20196;-83
2022/09/13 00:50:19;;;;;;;6.17;3.43;;;;;;;16.44;72.67;94273.09;4993162;28;20189;-83
2022/09/13 00:52:50;;;;;;;3.40;3.10;;;;;;;17.39;72.69;94425.22;4993352;28;20193;-83
2022/09/13 00:55:21;;;;;;;4.50;3.50;;;;;;;16.91;72.53;94351.84;4993561;28;20219;-82
2022/09/13 00:57:50;;;;;;;3.70;3.40;;;;;;;17.25;72.54;94398.44;4993165;28;20734;-82
2022/09/13 01:00:19;;;;;;;5.07;3.93;;;;;;;17.67;72.37;94453.69;4992746;28;20303;-82
2022/09/13 01:02:49;;;;;;;3.70;3.33;;;;;;;17.67;72.45;94453.69;4992934;28;20199;-83
2022/09/13 01:05:20;;;;;;;5.07;3.50;;;;;;;17.68;72.74;94454.50;4992662;28;20228;-82
2022/09/13 01:07:47;;;;;;;5.30;4.07;;;;;;;17.72;72.19;94453.94;4993598;28;20189;-82
2022/09/13 01:10:14;;;;;;;4.50;3.83;;;;;;;17.69;72.37;94456.09;4992616;28;20216;-82
2022/09/13 01:12:48;;;;;;;7.80;3.50;;;;;;;17.71;72.26;94457.50;4993275;28;20573;-83
2022/09/13 01:15:16;;;;;;;4.80;3.43;;;;;;;17.76;72.13;94450.00;4992886;28;20193;-83
2022/09/13 01:17:44;;;;;;;4.83;4.03;;;;;;;17.82;71.67;94458.00;4992582;28;20207;-84
2022/09/13 01:20:13;;;;;;;3.60;3.30;;;;;;;17.74;72.07;94453.75;4993208;28;20191;-83
2022/09/13 01:23:22;;;;;;;3.63;3.20;;;;;;;17.38;71.78;94396.97;4992799;28;20610;-83
2022/09/13 01:26:24;;;;;;;4.00;3.30;;;;;;;17.15;71.79;94345.50;4993219;28;20220;-84
2022/09/13 01:29:25;;;;;;;5.10;3.27;;;;;;;17.20;72.37;94364.63;4992374;28;20198;-83
2022/09/13 01:32:04;;;;;;;3.50;3.20;;;;;;;17.48;72.29;94411.16;4991980;28;20208;-83
2022/09/13 01:34:45;;;;;;;3.67;3.30;;;;;;;17.71;72.24;94442.00;4992626;28;20666;-82
2022/09/13 01:37:36;;;;;;;3.60;3.30;;;;;;;17.74;72.27;94444.22;4992844;28;20553;-84
2022/09/13 01:40:10;;;;;;;4.83;3.10;;;;;;;17.70;72.35;94442.97;4992467;28;20203;-83
2022/09/13 01:42:54;;;;;;;3.80;3.43;;;;;;;17.75;72.15;94445.03;4992815;28;20192;-83
2022/09/13 01:45:29;;;;;;;4.80;3.50;;;;;;;17.32;72.09;94366.72;4992498;28;20232;-83
2022/09/13 01:48:02;;;;;;;5.10;3.50;;;;;;;17.71;72.42;94436.81;4992398;28;20196;-83
2022/09/13 01:50:37;;;;;;;5.83;3.57;;;;;;;17.34;72.51;94385.41;4992101;28;20204;-84
2022/09/13 01:53:10;;;;;;;3.60;3.30;;;;;;;16.53;72.46;94257.31;4992810;28;20263;-83
2022/09/13 01:55:43;;;;;;;3.43;3.10;;;;;;;17.43;72.56;94398.00;4993278;28;20283;-82
2022/09/13 01:58:21;;;;;;;6.13;3.07;;;;;;;17.66;72.74;94446.09;4992310;28;20189;-81
2022/09/13 02:00:56;;;;;;;4.03;3.40;;;;;;;16.98;72.73;94338.00;4992395;28;20259;-83
2022/09/13 02:03:30;;;;;;;3.37;3.10;;;;;;;16.75;72.43;94299.47;4991906;28;20564;-82
2022/09/13 02:06:02;;;;;;;3.60;3.30;;;;;;;17.60;73.17;94433.94;4974926;28;20284;-83
2022/09/13 02:08:39;;;;;;;4.83;3.73;;;;;;;17.26;72.94;94384.53;4995707;28;20220;-83
2022/09/13 02:11:10;;;;;;;3.80;3.20;;;;;;;16.89;72.92;94321.03;5003472;28;20219;-82
2022/09/13 02:13:41;;;;;;;4.83;3.27;;;;;;;17.24;73.49;94378.78;4994783;28;20193;-81
2022/09/13 02:16:15;;;;;;;3.83;3.40;;;;;;;17.63;73.10;94436.94;4993874;28;20233;-83
2022/09/13 02:18:47;;;;;;;4.80;3.10;;;;;;;16.96;73.31;94336.56;4996319;28;20201;-81
2022/09/13 02:21:20;;;;;;;6.90;3.87;;;;;;;17.24;73.11;94385.72;4995282;28;20673;-82
2022/09/13 02:23:51;;;;;;;3.60;3.30;;;;;;;17.51;73.19;94434.06;4995588;28;20232;-83
2022/09/13 02:26:21;;;;;;;4.23;3.40;;;;;;;16.42;73.58;94280.25;4992184;28;20224;-83
2022/09/13 02:28:52;;;;;;;3.37;3.07;;;;;;;17.43;73.81;94433.41;4990455;28;20645;-83
2022/09/13 02:31:25;;;;;;;3.53;3.23;;;;;;;17.38;73.93;94430.56;4991598;28;20189;-82
2022/09/13 02:34:00;;;;;;;4.60;3.33;;;;;;;17.13;74.29;94404.28;4991424;28;20209;-82
2022/09/13 02:36:32;;;;;;;5.00;3.67;;;;;;;17.30;74.02;94439.25;4992508;28;20287;-82
2022/09/13 02:39:03;;;;;;;3.63;3.33;;;;;;;17.26;74.21;94441.41;4991766;28;20186;-83
2022/09/13 02:41:35;;;;;;;4.10;3.70;;;;;;;17.21;74.58;94435.19;4991420;28;20196;-83
2022/09/13 02:44:07;;;;;;;4.40;3.80;;;;;;;16.92;74.68;94399.91;4992140;28;20253;-83
2022/09/13 02:47:04;;;;;;;6.63;3.17;;;;;;;17.12;74.84;94436.28;4991823;28;20208;-83
2022/09/13 02:49:42;;;;;;;6.10;3.47;;;;;;;16.86;74.57;94387.75;4912417;29;20235;-83
2022/09/13 02:52:16;;;;;;;4.83;3.53;;;;;;;17.10;74.69;94433.91;4926926;29;20187;-83
2022/09/13 02:54:56;;;;;;;5.70;4.07;;;;;;;17.09;74.78;94432.28;4937219;29;20195;-83
2022/09/13 02:57:30;;;;;;;4.10;3.07;;;;;;;17.06;74.98;94440.44;4915310;29;20187;-82
2022/09/13 02:59:57;;;;;;;5.67;3.17;;;;;;;17.07;74.66;94430.88;4912910;29;20199;-83
2022/09/13 03:02:29;;;;;;;3.90;3.50;;;;;;;16.70;74.98;94376.63;4912330;29;20203;-83
2022/09/13 03:04:59;;;;;;;3.93;3.57;;;;;;;16.82;75.22;94412.34;4912420;29;20258;-82
2022/09/13 03:07:26;;;;;;;3.40;3.10;;;;;;;16.94;75.03;94436.72;4911927;29;20196;-82
2022/09/13 03:09:57;;;;;;;3.70;3.30;;;;;;;16.58;75.07;94380.69;4912781;29;20196;-83
2022/09/13 03:12:39;;;;;;;3.60;3.30;;;;;;;16.88;75.41;94433.09;4912171;29;20200;-81
2022/09/13 03:15:14;;;;;;;3.40;3.10;;;;;;;15.95;75.54;94284.09;4911023;29;20677;-82
2022/09/13 03:17:49;;;;;;;4.63;3.00;;;;;;;15.22;75.22;94167.97;4893193;29;20593;-81
2022/09/13 03:20:30;;;;;;;3.73;3.30;;;;;;;16.82;75.65;94426.06;4893578;29;20287;-82
2022/09/13 03:23:34;;;;;;;5.40;2.50;;;;;;;16.82;75.67;94425.25;4893608;29;20233;-82
2022/09/13 03:26:16;;;;;;;3.37;3.03;;;;;;;16.80;75.60;94425.44;4921197;28;20225;-82
2022/09/13 03:28:53;;;;;;;2.97;2.77;;;;;;;16.78;75.38;94422.22;4971336;28;20204;-83
2022/09/13 03:31:29;;;;;;;3.20;3.00;;;;;;;16.77;75.61;94426.59;4971567;28;20221;-83
2022/09/13 03:33:59;;;;;;;4.00;3.20;;;;;;;16.74;75.84;94436.50;4970709;28;20204;-83
2022/09/13 03:36:36;;;;;;;3.07;2.77;;;;;;;16.70;76.01;94432.63;4971301;28;20190;-83
2022/09/13 03:39:12;;;;;;;3.47;3.17;;;;;;;15.82;75.78;94297.63;4973580;28;20620;-84
2022/09/13 03:41:43;;;;;;;3.93;3.23;;;;;;;15.50;75.73;94255.75;4970876;28;20189;-81
2022/09/13 03:44:14;;;;;;;5.00;2.73;;;;;;;16.66;75.88;94431.41;4970687;28;20553;-83
2022/09/13 03:46:45;;;;;;;9.83;3.13;;;;;;;16.04;76.04;94337.19;4971154;28;20197;-83
2022/09/13 03:49:15;;;;;;;3.70;3.30;;;;;;;16.62;76.03;94438.69;4970786;28;20205;-82
2022/09/13 03:51:48;;;;;;;7.53;3.30;;;;;;;16.60;76.36;94439.88;4971361;28;20197;-82
2022/09/13 03:54:18;;;;;;;3.37;3.07;;;;;;;16.45;75.97;94424.41;4970068;28;20648;-82
2022/09/13 03:57:07;;;;;;;3.97;3.30;;;;;;;16.54;76.14;94446.56;4970358;28;20201;-83
2022/09/13 03:59:37;;;;;;;3.70;3.00;;;;;;;16.11;76.40;94375.97;4970840;28;20229;-83
2022/09/13 04:02:06;;;;;;;3.43;3.13;;;;;;;16.46;76.72;94433.75;4970845;28;20284;-82
2022/09/13 04:04:33;;;;;;;3.07;2.77;;;;;;;15.98;76.69;94369.66;4970344;28;20218;-82
2022/09/13 04:07:03;;;;;;;5.50;4.13;;;;;;;16.19;77.09;94407.63;4970610;28;20205;-83
2022/09/13 04:09:30;;;;;;;5.83;5.27;;;;;;;16.38;76.62;94439.03;4970210;28;20304;-82
2022/09/13 04:11:57;;;;;;;6.87;4.60;;;;;;;16.37;76.31;94445.16;4970942;28;20569;-82
2022/09/13 04:14:25;;;;;;;5.93;3.77;;;;;;;16.34;76.25;94440.34;4970320;28;20198;-82
2022/09/13 04:16:53;;;;;;;5.87;3.47;;;;;;;16.32;76.29;94435.38;4985914;28;20700;-83
2022/09/13 04:19:21;;;;;;;4.87;3.40;;;;;;;16.30;76.39;94434.75;4989928;28;20272;-83
2022/09/13 04:21:48;;;;;;;3.70;2.97;;;;;;;15.48;76.03;94326.47;4989590;28;20636;-82
2022/09/13 04:24:17;;;;;;;5.30;3.50;;;;;;;15.74;76.06;94351.84;4989595;28;20197;-81
2022/09/13 04:26:44;;;;;;;8.47;5.83;;;;;;;16.28;76.49;94452.19;4990070;28;20303;-82
2022/09/13 04:29:11;;;;;;;4.73;4.33;;;;;;;16.27;76.51;94442.84;4990139;28;20186;-82
2022/09/13 04:31:38;;;;;;;5.00;3.67;;;;;;;16.26;76.66;94446.41;4990063;28;20197;-83
2022/09/13 04:34:06;;;;;;;4.77;3.17;;;;;;;16.18;76.65;94439.53;4990971;28;20719;-84
2022/09/13 04:36:33;;;;;;;4.27;3.57;;;;;;;16.25;76.83;94447.38;4990625;28;20219;-88
2022/09/13 04:39:00;;;;;;;3.77;2.93;;;;;;;16.26;76.75;94454.13;4989991;28;20208;-83
2022/09/13 04:41:28;;;;;;;4.60;2.90;;;;;;;16.24;76.89;94456.91;4989784;28;20204;-84
2022/09/13 04:43:55;;;;;;;5.67;3.43;;;;;;;16.30;76.52;94463.13;4989636;28;20248;-82
2022/09/13 04:46:22;;;;;;;3.60;3.30;;;;;;;16.08;76.69;94427.91;4989426;28;20221;-82
2022/09/13 04:48:50;;;;;;;3.70;3.30;;;;;;;16.13;76.35;94436.69;4989749;28;20196;-82
2022/09/13 04:51:18;;;;;;;8.63;3.73;;;;;;;16.33;76.70;94465.38;4989137;28;20193;-82
2022/09/13 04:53:45;;;;;;;4.33;3.10;;;;;;;15.89;76.47;94396.50;4993132;28;20197;-82
2022/09/13 04:56:14;;;;;;;6.80;3.57;;;;;;;15.48;76.80;94316.97;4994001;28;20212;-87
2022/09/13 04:58:42;;;;;;;5.83;3.67;;;;;;;16.50;76.24;94477.09;4994165;28;20195;-80
2022/09/13 05:01:10;;;;;;;6.30;3.10;;;;;;;16.54;76.38;94472.38;4988692;28;20200;-82
2022/09/13 05:03:38;;;;;;;4.57;4.07;;;;;;;16.11;76.15;94397.41;4974189;28;20199;-81
2022/09/13 05:06:07;;;;;;;4.13;3.77;;;;;;;16.52;76.66;94435.63;4976078;28;20304;-86
2022/09/13 05:08:35;;;;;;;6.70;4.10;;;;;;;16.86;76.27;94472.97;4974919;28;20197;-83
2022/09/13 05:11:02;;;;;;;6.73;4.33;;;;;;;16.96;75.20;94465.75;4973825;28;20669;-82
2022/09/13 05:13:29;;;;;;;6.13;4.47;;;;;;;17.21;74.85;94471.38;4973449;28;20197;-82
2022/09/13 05:15:57;;;;;;;6.67;4.10;;;;;;;17.46;73.34;94464.06;4974488;28;20237;-84
2022/09/13 05:18:26;;;;;;;7.40;3.90;;;;;;;17.34;72.92;94417.22;4973047;28;20194;-81
2022/09/13 05:20:54;;;;;;;3.43;3.13;;;;;;;18.00;72.20;94469.50;4973344;28;20584;-80
2022/09/13 05:23:21;;;;;;;4.90;2.90;;;;;;;18.28;70.83;94474.63;4973574;28;20672;-79
2022/09/13 05:25:53;;;;;;;3.47;3.03;;;;;;;18.51;69.53;94470.97;4973099;28;20688;-79
2022/09/13 05:28:20;;;;;;;4.90;2.70;;;;;;;18.24;67.57;94410.50;4973455;28;20244;-82
2022/09/13 05:30:55;;;;;;;3.67;2.87;;;;;;;18.82;66.69;94475.72;4973312;28;20190;-80
2022/09/13 05:33:23;;;;;;;4.93;2.67;;;;;;;18.42;66.93;94386.69;4973338;28;20193;-81
2022/09/13 05:35:51;;;;;;;4.80;3.30;;;;;;;18.66;65.34;94419.06;4973187;28;20233;-79
2022/09/13 05:38:18;;;;;;;5.90;3.00;;;;;;;19.07;65.53;94473.41;4973835;28;20186;-83
2022/09/13 05:40:45;;;;;;;4.47;2.77;;;;;;;18.88;64.29;94451.63;4975031;28;20629;-81
2022/09/13 05:43:13;;;;;;;3.17;2.90;;;;;;;19.22;64.56;94483.63;4972956;28;20200;-79
2022/09/13 05:45:40;;;;;;;2.97;2.77;;;;;;;19.17;64.52;94483.41;4973051;28;20229;-79
2022/09/13 05:48:08;;;;;;;3.10;2.80;;;;;;;18.56;64.67;94383.13;4970197;28;20196;-78
2022/09/13 05:50:38;;;;;;;3.33;2.80;;;;;;;19.30;64.66;94486.84;4980026;28;20201;-81
2022/09/13 05:53:06;;;;;;;4.13;2.60;;;;;;;19.38;64.91;94477.28;4971878;28;20221;-79
2022/09/13 05:55:34;;;;;;;4.17;2.70;;;;;;;19.45;64.47;94480.69;4969497;28;20204;-82
2022/09/13 05:58:02;;;;;;;3.20;2.90;;;;;;;19.48;63.83;94486.28;4964998;28;20249;-78
2022/09/13 06:00:30;;;;;;;3.50;2.60;;;;;;;19.52;63.23;94484.88;4953155;28;20218;-80
2022/09/13 06:02:57;;;;;;;3.13;2.90;;;;;;;19.47;63.59;94463.94;4955196;28;20585;-81
2022/09/13 06:05:24;;;;;;;3.73;3.30;;;;;;;19.73;63.74;94476.16;4965662;28;20209;-85
2022/09/13 06:07:52;;;;;;;3.83;3.27;;;;;;;19.76;62.67;94480.94;4971738;28;20531;-88
2022/09/13 06:10:20;;;;;;;2.97;2.77;;;;;;;19.68;62.72;94456.97;4954264;28;20201;-80
2022/09/13 06:12:47;;;;;;;3.27;2.97;;;;;;;20.08;62.23;94478.53;4971757;28;20273;-82
2022/09/13 06:15:14;;;;;;;5.93;2.73;;;;;;;20.29;61.98;94483.50;4973191;28;20260;-81
2022/09/13 06:17:41;;;;;;;4.53;2.43;;;;;;;20.18;62.04;94437.38;4990792;28;20193;-80
2022/09/13 06:20:09;;;;;;;2.73;2.53;;;;;;;20.66;60.77;94480.44;4991848;28;20220;-82
2022/09/13 06:22:36;;;;;;;4.20;2.60;;;;;;;20.40;59.99;94440.50;4995054;28;20201;-82
2022/09/13 06:25:05;;;;;;;2.83;2.50;;;;;;;20.82;59.25;94487.00;4993651;28;20209;-79
2022/09/13 06:27:32;;;;;;;6.30;2.75;;;;;;;20.54;59.28;94428.31;4992128;28;20239;-82
2022/09/13 06:29:59;;;;;;;4.85;2.75;;;;;;;20.78;58.94;94452.81;4990889;28;20189;-79
2022/09/13 06:32:26;;;;;;;3.05;2.75;;;;;;;21.14;58.47;94488.63;4991348;28;20223;-80
2022/09/13 06:34:53;;;;;;;5.28;3.50;;;;;;;21.28;58.77;94490.16;4990781;28;20204;-79
2022/09/13 06:37:20;;;;;;;3.33;2.80;;;;;;;21.47;57.41;94498.09;4990437;28;20661;-80
2022/09/13 06:39:48;;;;;;;2.80;2.30;;;;;;;21.00;57.88;94412.50;4990210;28;20276;-82
2022/09/13 06:42:16;;;;;;;2.95;2.75;;;;;;;21.62;55.78;94503.78;4990904;28;20204;-82
2022/09/13 06:44:44;;;;;;;3.65;2.58;;;;;;;21.70;56.91;94502.75;4989782;28;20649;-85
2022/09/13 06:47:11;;;;;;;2.88;2.67;;;;;;;21.72;56.47;94500.75;4990378;28;20224;-86
2022/09/13 06:49:39;;;;;;;2.08;1.98;;;;;;;21.73;56.54;94510.94;4991433;28;20625;-80
2022/09/13 06:52:06;;;;;;;3.00;2.70;;;;;;;21.30;55.82;94461.34;4990560;28;20566;-78
2022/09/13 06:54:33;;;;;;;3.25;2.83;;;;;;;21.47;56.08;94511.13;4992103;28;20590;-82
2022/09/13 06:57:01;;;;;;;5.75;2.80;;;;;;;21.28;56.81;94482.34;4993334;28;20200;-81
2022/09/13 06:59:30;;;;;;;3.03;2.70;;;;;;;21.58;57.07;94515.63;4993124;28;20309;-80
2022/09/13 07:01:57;;;;;;;5.72;2.67;;;;;;;21.49;56.93;94485.66;4990450;28;20188;-82
2022/09/13 07:04:24;;;;;;;3.90;2.67;;;;;;;20.98;55.48;94408.50;4972159;28;20676;-82
2022/09/13 07:06:51;;;;;;;2.83;2.60;;;;;;;21.82;56.94;94508.09;4970383;28;20236;-79
2022/09/13 07:09:20;;;;;;;3.90;2.70;;;;;;;21.94;57.35;94529.81;4968817;28;20198;-78
2022/09/13 07:11:48;;;;;;;9.82;3.00;;;;;;;22.11;58.12;94535.31;4968586;28;20196;-79
2022/09/13 07:14:16;;;;;;;7.68;2.55;;;;;;;22.16;57.73;94514.66;4968433;28;20186;-80
2022/09/13 07:16:45;;;;;;;3.55;2.42;;;;;;;22.17;54.55;94505.81;4967731;28;20237;-80
2022/09/13 07:19:14;;;;;;;2.92;2.35;;;;;;;22.45;54.33;94527.03;4968745;28;20273;-77
2022/09/13 07:21:41;;;;;;;3.03;2.55;;;;;;;22.57;55.61;94532.31;4969879;28;20249;-82
2022/09/13 07:24:08;;;;;;;4.20;2.60;;;;;;;22.57;55.16;94516.66;4970279;28;20640;-81
2022/09/13 07:26:35;;;;;;;2.45;2.25;;;;;;;22.81;52.23;94540.31;4969162;28;20217;-79
2022/09/13 07:29:04;;;;;;;2.17;2.03;;;;;;;22.25;53.60;94443.03;4968029;28;20190;-82
2022/09/13 07:31:32;;;;;;;5.68;2.58;;;;;;;23.02;54.06;94538.09;4968543;28;20213;-83
2022/09/13 07:34:02;;;;;;;2.58;2.38;;;;;;;23.13;50.88;94541.75;4972137;28;20615;-83
2022/09/13 07:36:30;;;;;;;3.70;2.47;;;;;;;23.17;49.94;94535.09;4987297;28;20193;-80
2022/09/13 07:38:58;;;;;;;3.30;2.42;;;;;;;23.21;50.34;94546.69;4978803;28;20185;-80
2022/09/13 07:41:27;;;;;;;2.42;2.22;;;;;;;22.77;48.29;94469.53;4970460;28;20193;-82
2022/09/13 07:43:54;;;;;;;2.40;2.20;;;;;;;22.76;50.00;94487.00;4968486;28;20201;-78
2022/09/13 07:46:23;;;;;;;2.60;2.35;;;;;;;22.93;49.91;94521.13;4983418;28;20220;-83
2022/09/13 07:48:52;;;;;;;2.88;2.33;;;;;;;22.64;49.70;94482.72;4987396;28;20208;-79
2022/09/13 07:51:22;;;;;;;2.08;1.90;;;;;;;23.04;52.13;94532.63;4987970;28;20276;-80
2022/09/13 07:53:52;;;;;;;2.75;2.55;;;;;;;23.23;49.15;94536.03;4980060;28;20645;-83
2022/09/13 07:56:20;;;;;;;3.25;2.60;;;;;;;23.26;49.25;94544.19;4969007;28;20209;-80
2022/09/13 07:58:49;;;;;;;3.78;2.45;;;;;;;23.25;49.43;94542.63;4967723;28;20283;-79
2022/09/13 08:01:19;;;;;;;2.67;2.20;;;;;;;23.28;49.10;94549.22;4972968;28;20193;-78
2022/09/13 08:03:51;;;;;;;2.97;2.20;;;;;;;23.24;48.51;94548.84;4989534;28;20215;-78
2022/09/13 08:06:18;;;;;;;3.35;2.00;;;;;;;23.21;48.09;94558.94;4991150;28;20213;-79
2022/09/13 08:08:46;;;;;;;2.33;1.98;;;;;;;23.00;48.30;94513.22;4986033;28;20210;-77
2022/09/13 08:11:18;;;;;;;2.15;1.88;;;;;;;23.22;49.93;94531.81;4970855;28;20220;-80
2022/09/13 08:13:45;;;;;;;5.38;1.90;;;;;;;23.45;47.99;94544.97;4969831;28;20716;-79
2022/09/13 08:16:12;;;;;;;3.20;2.22;;;;;;;23.52;48.15;94535.22;4970204;28;20300;-79
2022/09/13 08:18:43;;;;;;;2.28;2.15;;;;;;;23.34;47.48;94511.78;4972138;28;20219;-79
2022/09/13 08:21:10;;;;;;;2.00;1.90;;;;;;;23.23;48.17;94481.25;4978015;28;20545;-79
2022/09/13 08:23:37;;;;;;;2.25;2.10;;;;;;;23.67;48.22;94542.69;4989170;28;20573;-80
2022/09/13 08:26:06;;;;;;;2.00;1.80;;;;;;;23.56;48.89;94506.88;4989163;28;20220;-80
2022/09/13 08:28:34;;;;;;;2.03;1.90;;;;;;;23.82;47.67;94531.84;4992199;28;20193;-78
2022/09/13 08:31:05;;;;;;;2.05;1.95;;;;;;;23.80;45.42;94533.88;4993787;28;20216;-79
2022/09/13 08:33:33;;;;;;;2.38;2.15;;;;;;;23.46;46.42;94530.91;4992914;28;20193;-79
2022/09/13 08:36:00;;;;;;;2.13;1.95;;;;;;;23.49;47.45;94537.50;4992978;28;20610;-79
2022/09/13 08:38:27;;;;;;;3.25;1.90;;;;;;;23.42;45.94;94536.78;5009771;28;20196;-81
2022/09/13 08:40:56;;;;;;;7.25;2.10;;;;;;;23.32;44.20;94508.63;5013195;28;20238;-82
2022/09/13 08:43:43;;;;;;;1.90;1.77;;;;;;;23.47;43.30;94532.50;5012248;28;20195;-81
2022/09/13 08:46:17;;;;;;;2.20;2.00;;;;;;;23.33;43.92;94514.63;5013186;28;20216;-81
2022/09/13 08:48:47;;;;;;;2.95;1.85;;;;;;;23.42;44.25;94532.38;5014105;28;20195;-80
2022/09/13 08:51:26;;;;;;;2.08;1.98;;;;;;;23.25;44.35;94526.97;5012785;28;20196;-81
2022/09/13 08:53:53;;;;;;;2.15;1.88;;;;;;;23.33;45.81;94523.25;5014772;28;20189;-81
2022/09/13 08:56:24;;;;;;;2.33;2.13;;;;;;;23.40;43.74;94525.75;5010352;28;20280;-81
2022/09/13 08:59:18;;;;;;;2.45;2.00;;;;;;;23.37;44.54;94519.19;4988604;28;20312;-80
2022/09/13 09:01:56;;;;;;;3.67;1.98;;;;;;;23.38;41.39;94526.00;4982670;28;20240;-82
2022/09/13 09:04:45;;;;;;;1.80;1.70;;;;;;;23.31;42.47;94520.06;4987589;28;20231;-81
2022/09/13 09:07:17;;;;;;;2.05;1.90;;;;;;;23.13;45.36;94489.56;4988362;28;20252;-78
2022/09/13 09:09:50;;;;;;;3.35;1.73;;;;;;;23.35;45.88;94518.59;4988499;28;20668;-81
2022/09/13 09:12:28;;;;;;;1.95;1.83;;;;;;;23.43;43.39;94525.31;4977459;28;20228;-81
2022/09/13 09:15:03;;;;;;;1.90;1.80;;;;;;;23.21;44.74;94501.53;4974268;28;20656;-81
2022/09/13 09:17:36;;;;;;;2.50;1.80;;;;;;;23.47;44.39;94529.09;4979773;28;20579;-79
2022/09/13 09:20:16;;;;;;;2.85;1.95;;;;;;;23.51;46.01;94517.19;4992387;28;20204;-79
2022/09/13 09:22:45;;;;;;;2.10;2.00;;;;;;;23.60;45.86;94526.28;4992871;28;20200;-79
2022/09/13 09:25:13;;;;;;;2.90;2.20;;;;;;;23.66;42.95;94528.06;4992816;28;20197;-79
2022/09/13 09:27:40;;;;;;;2.83;2.00;;;;;;;23.31;43.07;94485.34;4978343;28;20226;-80
2022/09/13 09:30:14;;;;;;;2.50;2.30;;;;;;;23.48;43.27;94528.06;4973284;28;20185;-84
2022/09/13 09:32:52;;;;;;;1.80;1.70;;;;;;;23.36;43.73;94525.44;4990919;28;20192;-82
2022/09/13 09:35:31;;;;;;;3.08;2.00;;;;;;;23.20;43.52;94508.56;4988862;28;20192;-82
2022/09/13 09:38:32;;;;;;;2.00;1.85;;;;;;;23.29;43.47;94514.28;4992159;28;20235;-80
2022/09/13 09:41:04;;;;;;;3.05;2.05;;;;;;;23.29;43.89;94509.84;4992054;28;20193;-80
2022/09/13 09:43:36;;;;;;;2.83;2.15;;;;;;;23.12;44.57;94490.59;4992588;28;20197;-81
2022/09/13 09:46:08;;;;;;;3.58;1.98;;;;;;;22.58;44.20;94413.97;4992146;28;20212;-81
2022/09/13 09:48:41;;;;;;;3.90;2.53;;;;;;;22.79;43.42;94455.25;4992229;28;20193;-82
2022/09/13 09:51:10;;;;;;;2.95;2.13;;;;;;;23.02;44.40;94505.97;4991807;28;20575;-83
2022/09/13 09:53:42;;;;;;;2.10;2.00;;;;;;;22.97;44.27;94503.22;4992073;28;20193;-78
2022/09/13 09:56:23;;;;;;;2.53;2.30;;;;;;;22.82;44.49;94505.38;4992108;28;20196;-81
2022/09/13 09:58:50;;;;;;;2.22;2.13;;;;;;;22.82;45.36;94503.56;4991361;28;20314;-82
2022/09/13 10:01:24;;;;;;;3.45;2.42;;;;;;;22.53;44.66;94450.34;4991779;28;20189;-83
2022/09/13 10:04:12;;;;;;;2.90;2.20;;;;;;;22.65;45.25;94490.31;4975667;28;20236;-80
2022/09/13 10:06:40;;;;;;;2.45;2.25;;;;;;;22.68;46.00;94483.88;4971351;28;20885;-81
2022/09/13 10:09:16;;;;;;;2.78;2.00;;;;;;;21.79;46.21;94353.88;4972287;28;20193;-82
2022/09/13 10:11:46;;;;;;;4.47;2.30;;;;;;;22.44;46.05;94454.25;4972140;28;20182;-81
2022/09/13 10:14:37;;;;;;;2.25;2.05;;;;;;;22.68;45.59;94484.66;4971971;28;20197;-80
2022/09/13 10:17:22;;;;;;;3.08;2.10;;;;;;;22.39;45.58;94420.22;4971871;28;20229;-79
2022/09/13 10:19:56;;;;;;;2.78;2.20;;;;;;;22.83;44.79;94471.25;4955900;28;20208;-82
2022/09/13 10:22:23;;;;;;;2.08;1.98;;;;;;;22.64;44.54;94436.59;4971973;28;20568;-80
2022/09/13 10:24:50;;;;;;;2.65;2.20;;;;;;;22.86;44.45;94475.25;4971866;28;20236;-81
2022/09/13 10:27:26;;;;;;;2.35;2.15;;;;;;;22.69;44.89;94435.94;4971055;28;20233;-81
2022/09/13 10:29:58;;;;;;;2.42;2.22;;;;;;;22.86;44.45;94476.03;4972156;28;20204;-80
2022/09/13 10:32:27;;;;;;;3.47;2.15;;;;;;;22.28;44.06;94398.31;4971318;28;20237;-81
2022/09/13 10:34:56;;;;;;;2.20;2.10;;;;;;;22.65;43.70;94447.81;4970970;28;20197;-80
2022/09/13 10:37:29;;;;;;;3.08;2.20;;;;;;;22.43;44.46;94429.22;4971824;28;20581;-79
2022/09/13 10:40:04;;;;;;;2.03;1.92;;;;;;;22.68;44.52;94463.81;4971294;28;20189;-80
2022/09/13 10:42:31;;;;;;;3.13;2.08;;;;;;;22.59;44.93;94461.72;4971125;28;20644;-82
2022/09/13 10:45:01;;;;;;;3.78;2.33;;;;;;;22.56;45.32;94465.56;4972063;28;20217;-80
2022/09/13 10:47:34;;;;;;;3.08;2.30;;;;;;;22.59;45.30;94449.50;4971709;28;20217;-80
2022/09/13 10:50:20;;;;;;;4.18;2.17;;;;;;;22.66;45.50;94446.78;4970596;28;20245;-80
2022/09/13 10:52:48;;;;;;;1.92;1.83;;;;;;;22.51;45.35;94405.47;4971028;28;20295;-79
2022/09/13 10:55:28;;;;;;;2.47;2.30;;;;;;;22.78;44.36;94434.63;4971479;28;20194;-79
2022/09/13 10:58:12;;;;;;;2.28;2.08;;;;;;;22.24;44.65;94352.88;4971680;28;20181;-81
2022/09/13 11:00:46;;;;;;;4.20;2.75;;;;;;;22.69;43.87;94428.13;4989769;28;20198;-80
2022/09/13 11:03:32;;;;;;;2.17;2.00;;;;;;;22.23;43.50;94365.06;5000526;28;20195;-79
2022/09/13 11:06:07;;;;;;;2.38;2.17;;;;;;;22.79;42.69;94441.41;4994916;28;20200;-81
2022/09/13 11:08:47;;;;;;;2.45;2.15;;;;;;;22.82;43.00;94433.16;4990040;28;20243;-79
2022/09/13 11:11:22;;;;;;;4.07;2.30;;;;;;;22.87;44.10;94437.72;4988425;28;20216;-81
2022/09/13 11:14:04;;;;;;;2.20;2.00;;;;;;;22.77;43.42;94420.78;4985711;28;20212;-80
2022/09/13 11:16:47;;;;;;;2.17;2.03;;;;;;;22.79;42.74;94421.34;4986434;28;20232;-80
2022/09/13 11:19:34;;;;;;;2.28;2.08;;;;;;;21.95;41.96;94284.84;4988769;28;20227;-81
2022/09/13 11:22:20;;;;;;;2.75;2.28;;;;;;;21.94;42.68;94292.88;4989377;28;20203;-80
2022/09/13 11:25:04;;;;;;;7.53;1.90;;;;;;;22.68;41.44;94411.69;4987619;28;20657;-79
2022/09/13 11:27:43;;;;;;;2.47;1.95;;;;;;;22.36;42.58;94342.50;4987442;28;20770;-78
2022/09/13 11:30:15;;;;;;;2.40;2.20;;;;;;;22.80;43.42;94398.72;4989528;28;20223;-81
2022/09/13 11:33:17;;;;;;;2.60;2.20;;;;;;;22.96;42.78;94418.97;4989259;28;20193;-79
2022/09/13 11:35:54;;;;;;;1.98;1.88;;;;;;;23.01;41.72;94411.28;4892586;29;20248;-80
2022/09/13 11:38:35;;;;;;;2.22;2.10;;;;;;;22.86;41.94;94399.63;4891599;29;20240;-81
2022/09/13 11:41:12;;;;;;;2.08;1.90;;;;;;;22.92;43.14;94415.19;4890261;29;20208;-81
2022/09/13 11:44:04;;;;;;;1.90;1.80;;;;;;;22.61;44.16;94345.78;4886095;29;20721;-80
2022/09/13 11:46:41;;;;;;;2.17;1.95;;;;;;;23.04;43.63;94410.03;4889106;29;20200;-79
2022/09/13 11:49:34;;;;;;;2.22;2.03;;;;;;;23.12;43.11;94411.53;4890504;29;20212;-79
2022/09/13 11:52:16;;;;;;;2.10;2.00;;;;;;;23.24;43.68;94415.78;4889795;29;20196;-79
2022/09/13 11:54:58;;;;;;;4.03;2.08;;;;;;;23.29;43.28;94418.50;4890282;29;20660;-81
2022/09/13 11:57:31;;;;;;;1.80;1.70;;;;;;;23.01;42.12;94377.38;4889353;29;20195;-79